createdAt,value
2022-08-02T00:00:58.982Z,101279.97
2022-08-02T00:03:26.667Z,101275.13
2022-08-02T00:05:54.320Z,101273.34
2022-08-02T00:08:23.536Z,101272.88
2022-08-02T00:10:51.341Z,101278.88
2022-08-02T00:13:18.961Z,101271.41
2022-08-02T00:15:46.570Z,101270.94
2022-08-02T00:18:14.176Z,101262.25
2022-08-02T00:20:41.805Z,101264.81
2022-08-02T00:23:09.383Z,101252.31
2022-08-02T00:25:55.603Z,101251.28
2022-08-02T00:28:27.474Z,101250.75
2022-08-02T00:30:56.222Z,101253.56
2022-08-02T00:34:26.537Z,101256.03
2022-08-02T00:36:11.493Z,101254.63
2022-08-02T00:38:39.112Z,101254.31
2022-08-02T00:41:13.125Z,101258.28
2022-08-02T00:43:40.821Z,101254.31
2022-08-02T00:46:08.493Z,101252.47
2022-08-02T00:48:36.139Z,101254.09
2022-08-02T00:51:09.168Z,101243.28
2022-08-02T00:53:36.763Z,101247.50
2022-08-02T00:56:04.775Z,101243.28
2022-08-02T00:58:33.755Z,101244.84
2022-08-02T01:01:02.033Z,101241.91
2022-08-02T01:03:29.791Z,101238.09
2022-08-02T01:06:10.940Z,101244.69
2022-08-02T01:08:39.328Z,101241.44
2022-08-02T01:11:06.978Z,101245.34
2022-08-02T01:13:35.983Z,101241.84
2022-08-02T01:16:11.123Z,101239.50
2022-08-02T01:18:42.590Z,101240.91
2022-08-02T01:21:44.731Z,101235.78
2022-08-02T01:24:25.833Z,101246.09
2022-08-02T01:26:56.920Z,101250.00
2022-08-02T01:29:30.455Z,101245.97
2022-08-02T01:32:03.450Z,101247.19
2022-08-02T01:34:35.559Z,101247.25
2022-08-02T01:37:06.830Z,101251.53
2022-08-02T01:39:35.479Z,101252.03
2022-08-02T01:42:04.640Z,101254.31
2022-08-02T01:44:36.595Z,101256.81
2022-08-02T01:47:06.833Z,101250.81
2022-08-02T01:49:35.877Z,101229.22
2022-08-02T01:52:22.730Z,101232.94
2022-08-02T01:54:52.076Z,101231.44
2022-08-02T01:57:21.153Z,101226.03
2022-08-02T01:59:50.820Z,101225.94
2022-08-02T02:02:19.263Z,101219.81
2022-08-02T02:04:48.147Z,101209.69
2022-08-02T02:07:17.026Z,101206.34
2022-08-02T02:09:47.762Z,101206.72
2022-08-02T02:12:19.530Z,101199.50
2022-08-02T02:14:51.460Z,101205.06
2022-08-02T02:18:11.865Z,101211.13
2022-08-02T02:20:12.072Z,101212.69
2022-08-02T02:22:39.703Z,101214.75
2022-08-02T02:25:08.928Z,101210.34
2022-08-02T02:27:40.834Z,101214.06
2022-08-02T02:30:13.043Z,101210.22
2022-08-02T02:32:42.815Z,101209.78
2022-08-02T02:35:11.715Z,101210.56
2022-08-02T02:37:39.864Z,101207.22
2022-08-02T02:40:09.614Z,101204.50
2022-08-02T02:42:37.746Z,101202.50
2022-08-02T02:45:11.105Z,101194.09
2022-08-02T02:47:41.157Z,101194.66
2022-08-02T02:50:11.800Z,101190.59
2022-08-02T02:52:41.089Z,101183.56
2022-08-02T02:55:09.932Z,101190.13
2022-08-02T02:57:38.179Z,101184.00
2022-08-02T03:00:08.203Z,101183.34
2022-08-02T03:02:36.044Z,101173.03
2022-08-02T03:05:04.128Z,101165.19
2022-08-02T03:07:34.924Z,101169.47
2022-08-02T03:10:04.449Z,101182.56
2022-08-02T03:12:32.651Z,101177.38
2022-08-02T03:15:00.766Z,101164.91
2022-08-02T03:17:38.663Z,101163.75
2022-08-02T03:20:10.464Z,101159.47
2022-08-02T03:22:39.628Z,101166.75
2022-08-02T03:25:08.508Z,101165.63
2022-08-02T03:27:36.383Z,101161.50
2022-08-02T03:30:05.871Z,101162.69
2022-08-02T03:32:33.815Z,101168.53
2022-08-02T03:35:01.852Z,101165.03
2022-08-02T03:37:30.625Z,101164.53
2022-08-02T03:40:00.270Z,101160.97
2022-08-02T03:42:28.880Z,101163.50
2022-08-02T03:44:57.023Z,101165.59
2022-08-02T03:47:25.374Z,101164.03
2022-08-02T03:49:53.302Z,101157.34
2022-08-02T03:52:21.121Z,101159.22
2022-08-02T03:54:48.851Z,101165.47
2022-08-02T03:57:17.957Z,101153.94
2022-08-02T03:59:46.845Z,101151.00
2022-08-02T04:02:14.755Z,101149.66
2022-08-02T04:04:42.635Z,101149.50
2022-08-02T04:07:10.323Z,101149.16
2022-08-02T04:09:39.104Z,101154.84
2022-08-02T04:12:07.016Z,101140.34
2022-08-02T04:14:36.813Z,101140.69
2022-08-02T04:17:07.340Z,101133.16
2022-08-02T04:19:39.454Z,101140.00
2022-08-02T04:22:09.209Z,101145.88
2022-08-02T04:24:40.056Z,101140.72
2022-08-02T04:27:19.680Z,101142.28
2022-08-02T04:29:58.918Z,101143.56
2022-08-02T04:32:26.550Z,101138.72
2022-08-02T04:35:18.193Z,101137.38
2022-08-02T04:38:05.487Z,101130.88
2022-08-02T04:40:31.876Z,101130.91
2022-08-02T04:43:00.225Z,101131.22
2022-08-02T04:45:31.143Z,101117.03
2022-08-02T04:48:06.568Z,101119.75
2022-08-02T04:50:34.279Z,101124.88
2022-08-02T04:53:01.969Z,101131.91
2022-08-02T04:55:29.892Z,101145.25
2022-08-02T04:57:58.549Z,101153.72
2022-08-02T05:00:27.455Z,101152.50
2022-08-02T05:02:56.863Z,101150.84
2022-08-02T05:05:24.519Z,101152.34
2022-08-02T05:07:52.229Z,101148.88
2022-08-02T05:10:19.963Z,101143.19
2022-08-02T05:12:47.598Z,101135.75
2022-08-02T05:15:17.995Z,101118.41
2022-08-02T05:17:47.647Z,101126.59
2022-08-02T05:20:17.305Z,101115.97
2022-08-02T05:22:45.551Z,101113.84
2022-08-02T05:25:13.231Z,101107.91
2022-08-02T05:27:40.922Z,101123.72
2022-08-02T05:30:09.888Z,101120.88
2022-08-02T05:32:44.194Z,101115.19
2022-08-02T05:35:11.807Z,101108.69
2022-08-02T05:37:42.170Z,101113.84
2022-08-02T05:40:13.227Z,101110.41
2022-08-02T05:42:41.306Z,101105.91
2022-08-02T05:45:09.454Z,101111.28
2022-08-02T05:47:37.124Z,101105.66
2022-08-02T05:50:05.459Z,101111.13
2022-08-02T05:52:42.907Z,101098.25
2022-08-02T05:55:14.174Z,101097.16
2022-08-02T05:57:45.676Z,101089.91
2022-08-02T06:00:15.874Z,101081.94
2022-08-02T06:02:59.414Z,101080.06
2022-08-02T06:05:28.471Z,101076.09
2022-08-02T06:07:59.555Z,101068.78
2022-08-02T06:10:29.060Z,101074.16
2022-08-02T06:13:04.268Z,101086.03
2022-08-02T06:15:32.163Z,101093.53
2022-08-02T06:18:00.012Z,101078.13
2022-08-02T06:20:28.139Z,101079.72
2022-08-02T06:22:57.639Z,101085.88
2022-08-02T06:25:47.970Z,101081.41
2022-08-02T06:28:14.824Z,101071.47
2022-08-02T06:30:42.818Z,101084.03
2022-08-02T06:33:10.575Z,101075.59
2022-08-02T06:35:46.283Z,101070.38
2022-08-02T06:38:20.184Z,101071.50
2022-08-02T06:40:58.136Z,101071.22
2022-08-02T06:43:32.582Z,101069.84
2022-08-02T06:46:37.542Z,101075.97
2022-08-02T06:48:47.904Z,101082.41
2022-08-02T06:51:15.887Z,101076.69
2022-08-02T06:53:45.435Z,101076.41
2022-08-02T06:56:13.397Z,101077.44
2022-08-02T06:58:41.069Z,101079.31
2022-08-02T07:01:09.764Z,101078.94
2022-08-02T07:03:38.504Z,101075.97
2022-08-02T07:06:08.941Z,101074.41
2022-08-02T07:08:38.383Z,101072.09
2022-08-02T07:11:08.041Z,101079.38
2022-08-02T07:13:39.705Z,101085.84
2022-08-02T07:16:08.455Z,101067.56
2022-08-02T07:18:36.516Z,101071.22
2022-08-02T07:21:06.102Z,101072.66
2022-08-02T07:23:36.745Z,101069.50
2022-08-02T07:26:05.879Z,101068.34
2022-08-02T07:28:34.987Z,101061.38
2022-08-02T07:31:03.330Z,101072.34
2022-08-02T07:33:37.493Z,101067.13
2022-08-02T07:36:09.668Z,101063.56
2022-08-02T07:38:44.311Z,101055.34
2022-08-02T07:41:13.380Z,101057.03
2022-08-02T07:43:42.407Z,101050.66
2022-08-02T07:46:09.978Z,101049.09
2022-08-02T07:48:37.591Z,101050.56
2022-08-02T07:51:05.262Z,101050.84
2022-08-02T07:53:51.076Z,101051.81
2022-08-02T07:56:19.299Z,101049.38
2022-08-02T07:58:48.246Z,101041.78
2022-08-02T08:01:15.943Z,101043.75
2022-08-02T08:03:43.563Z,101046.41
2022-08-02T08:06:11.167Z,101049.38
2022-08-02T08:08:38.739Z,101042.75
2022-08-02T08:11:06.414Z,101039.94
2022-08-02T08:13:34.946Z,101038.25
2022-08-02T08:16:04.078Z,101041.63
2022-08-02T08:18:31.659Z,101031.63
2022-08-02T08:20:59.296Z,101033.97
2022-08-02T08:23:28.498Z,101021.03
2022-08-02T08:25:56.483Z,101025.72
2022-08-02T08:28:24.045Z,101025.84
2022-08-02T08:30:51.680Z,101018.66
2022-08-02T08:33:20.675Z,101014.97
2022-08-02T08:35:48.903Z,101013.63
2022-08-02T08:38:17.395Z,101015.53
2022-08-02T08:40:45.559Z,101009.88
2022-08-02T08:43:14.716Z,101010.56
2022-08-02T08:45:42.608Z,100995.59
2022-08-02T08:48:13.801Z,101000.88
2022-08-02T08:50:47.387Z,101000.44
2022-08-02T08:53:15.280Z,100993.84
2022-08-02T08:55:44.209Z,100997.44
2022-08-02T08:58:12.676Z,100991.56
2022-08-02T09:00:41.423Z,100989.19
2022-08-02T09:03:10.193Z,100993.06
2022-08-02T09:05:38.591Z,100990.16
2022-08-02T09:08:07.955Z,100988.47
2022-08-02T09:10:38.104Z,100981.78
2022-08-02T09:13:38.162Z,100988.09
2022-08-02T09:16:11.648Z,100991.66
2022-08-02T09:18:43.620Z,100986.19
2022-08-02T09:21:11.632Z,100984.56
2022-08-02T09:23:41.833Z,100985.72
2022-08-02T09:26:11.520Z,100982.13
2022-08-02T09:28:41.563Z,100976.56
2022-08-02T09:31:10.353Z,100978.88
2022-08-02T09:33:39.178Z,100979.53
2022-08-02T09:36:08.522Z,100975.72
2022-08-02T09:38:37.840Z,100978.66
2022-08-02T09:41:08.379Z,100980.19
2022-08-02T09:44:03.871Z,100989.22
2022-08-02T09:46:30.364Z,100980.94
2022-08-02T09:48:59.741Z,100979.28
2022-08-02T09:51:28.784Z,100973.13
2022-08-02T09:54:07.943Z,100971.63
2022-08-02T09:56:46.244Z,100953.13
2022-08-02T09:59:14.684Z,100965.25
2022-08-02T10:01:50.861Z,100957.34
2022-08-02T10:04:28.502Z,100952.44
2022-08-02T10:06:56.188Z,100956.28
2022-08-02T10:09:23.800Z,100952.13
2022-08-02T10:11:53.196Z,100959.19
2022-08-02T10:14:21.344Z,100950.22
2022-08-02T10:16:48.969Z,100951.44
2022-08-02T10:19:17.235Z,100941.75
2022-08-02T10:21:47.023Z,100941.91
2022-08-02T10:24:16.482Z,100945.75
2022-08-02T10:26:45.901Z,100925.50
2022-08-02T10:29:17.499Z,100929.09
2022-08-02T10:31:48.810Z,100930.19
2022-08-02T10:34:20.000Z,100933.78
2022-08-02T10:36:49.060Z,100943.91
2022-08-02T10:39:16.935Z,100943.38
2022-08-02T10:41:48.732Z,100945.25
2022-08-02T10:44:25.362Z,100944.97
2022-08-02T10:46:53.751Z,100943.56
2022-08-02T10:49:40.068Z,100941.50
2022-08-02T10:52:10.160Z,100945.31
2022-08-02T10:54:40.254Z,100940.56
2022-08-02T10:57:20.643Z,100939.94
2022-08-02T10:59:50.390Z,100942.72
2022-08-02T11:02:36.800Z,100930.72
2022-08-02T11:05:10.960Z,100926.81
2022-08-02T11:07:40.547Z,100925.28
2022-08-02T11:10:40.068Z,100930.53
2022-08-02T11:13:13.865Z,100926.84
2022-08-02T11:15:55.228Z,100935.25
2022-08-02T11:18:23.876Z,100928.66
2022-08-02T11:21:21.873Z,100927.31
2022-08-02T11:23:49.811Z,100934.06
2022-08-02T11:26:45.780Z,100929.41
2022-08-02T11:29:15.872Z,100928.06
2022-08-02T11:31:46.388Z,100925.16
2022-08-02T11:34:28.915Z,100916.31
2022-08-02T11:37:02.388Z,100919.78
2022-08-02T11:39:29.996Z,100916.00
2022-08-02T11:41:58.910Z,100907.69
2022-08-02T11:44:27.938Z,100911.81
2022-08-02T11:46:58.617Z,100908.53
2022-08-02T11:49:26.380Z,100917.50
2022-08-02T11:52:00.333Z,100909.78
2022-08-02T11:54:30.386Z,100912.69
2022-08-02T11:57:14.427Z,100917.00
2022-08-02T11:59:47.555Z,100928.50
2022-08-02T12:02:17.540Z,100912.19
2022-08-02T12:04:53.181Z,100922.75
2022-08-02T12:07:34.338Z,100916.06
2022-08-02T12:10:04.348Z,100920.47
2022-08-02T12:12:31.949Z,100924.81
2022-08-02T12:14:59.631Z,100930.00
2022-08-02T12:17:47.780Z,100922.03
2022-08-02T12:20:17.134Z,100918.91
2022-08-02T12:22:45.599Z,100923.09
2022-08-02T12:25:34.330Z,100911.97
2022-08-02T12:28:17.814Z,100910.75
2022-08-02T12:30:53.511Z,100911.53
2022-08-02T12:33:23.745Z,100911.28
2022-08-02T12:35:51.574Z,100923.47
2022-08-02T12:38:19.220Z,100926.66
2022-08-02T12:40:47.711Z,100915.53
2022-08-02T12:43:20.902Z,100912.44
2022-08-02T12:45:50.540Z,100899.72
2022-08-02T12:48:18.999Z,100914.47
2022-08-02T12:50:47.949Z,100909.56
2022-08-02T12:53:17.860Z,100909.56
2022-08-02T12:56:01.046Z,100906.47
2022-08-02T12:58:31.423Z,100899.63
2022-08-02T13:01:00.716Z,100899.94
2022-08-02T13:04:11.629Z,100907.44
2022-08-02T13:06:43.090Z,100901.84
2022-08-02T13:09:13.570Z,100894.41
2022-08-02T13:11:43.346Z,100902.81
2022-08-02T13:14:11.385Z,100891.94
2022-08-02T13:16:40.722Z,100891.50
2022-08-02T13:19:08.364Z,100884.03
2022-08-02T13:21:40.610Z,100891.81
2022-08-02T13:24:39.254Z,100887.81
2022-08-02T13:27:12.901Z,100890.56
2022-08-02T13:29:40.506Z,100887.81
2022-08-02T13:32:08.117Z,100883.59
2022-08-02T13:34:35.977Z,100887.94
2022-08-02T13:37:05.449Z,100887.63
2022-08-02T13:39:33.380Z,100885.44
2022-08-02T13:42:01.034Z,100884.34
2022-08-02T13:44:28.719Z,100878.59
2022-08-02T13:46:56.337Z,100876.19
2022-08-02T13:49:50.600Z,100871.13
2022-08-02T13:52:14.654Z,100870.78
2022-08-02T13:54:42.607Z,100871.47
2022-08-02T13:57:10.194Z,100862.91
2022-08-02T13:59:56.654Z,100859.19
2022-08-02T14:02:25.588Z,100862.97
2022-08-02T14:04:53.191Z,100860.84
2022-08-02T14:07:22.469Z,100859.81
2022-08-02T14:09:50.040Z,100860.94
2022-08-02T14:12:17.740Z,100848.44
2022-08-02T14:14:45.807Z,100839.06
2022-08-02T14:17:13.936Z,100835.19
2022-08-02T14:19:41.547Z,100841.94
2022-08-02T14:22:10.513Z,100843.63
2022-08-02T14:24:42.433Z,100853.50
2022-08-02T14:27:10.372Z,100846.63
2022-08-02T14:29:38.020Z,100845.34
2022-08-02T14:32:06.539Z,100847.91
2022-08-02T14:34:34.136Z,100842.19
2022-08-02T14:37:01.746Z,100837.97
2022-08-02T14:39:43.067Z,100837.31
2022-08-02T14:42:18.738Z,100837.16
2022-08-02T14:44:46.432Z,100832.56
2022-08-02T14:47:14.072Z,100834.69
2022-08-02T14:49:43.474Z,100824.50
2022-08-02T14:52:14.682Z,100823.41
2022-08-02T14:54:43.049Z,100822.91
2022-08-02T14:57:11.143Z,100820.81
2022-08-02T14:59:42.555Z,100817.56
2022-08-02T15:02:13.253Z,100815.75
2022-08-02T15:04:42.946Z,100818.69
2022-08-02T15:07:11.485Z,100820.94
2022-08-02T15:09:39.783Z,100822.16
2022-08-02T15:12:09.072Z,100811.09
2022-08-02T15:14:36.672Z,100809.66
2022-08-02T15:17:06.009Z,100806.63
2022-08-02T15:19:58.943Z,100801.34
2022-08-02T15:22:21.546Z,100802.19
2022-08-02T15:24:49.773Z,100805.19
2022-08-02T15:27:17.830Z,100794.44
2022-08-02T15:29:46.956Z,100791.94
2022-08-02T15:32:18.722Z,100792.19
2022-08-02T15:34:46.690Z,100793.69
2022-08-02T15:37:14.328Z,100792.84
2022-08-02T15:39:41.949Z,100778.13
2022-08-02T15:42:09.909Z,100781.09
2022-08-02T15:44:39.032Z,100775.94
2022-08-02T15:47:07.534Z,100780.06
2022-08-02T15:49:40.870Z,100776.63
2022-08-02T15:52:09.273Z,100775.16
2022-08-02T15:54:36.855Z,100782.19
2022-08-02T15:57:04.488Z,100772.19
2022-08-02T15:59:32.096Z,100771.56
2022-08-02T16:02:00.110Z,100775.03
2022-08-02T16:04:27.834Z,100782.88
2022-08-02T16:06:56.769Z,100764.81
2022-08-02T16:09:24.352Z,100772.22
2022-08-02T16:11:51.981Z,100769.16
2022-08-02T16:14:19.579Z,100769.25
2022-08-02T16:16:47.178Z,100779.69
2022-08-02T16:19:47.461Z,100778.06
2022-08-02T16:22:03.812Z,100772.47
2022-08-02T16:24:31.679Z,100767.28
2022-08-02T16:26:59.378Z,100777.28
2022-08-02T16:29:27.040Z,100772.13
2022-08-02T16:32:00.994Z,100773.25
2022-08-02T16:34:44.864Z,100769.03
2022-08-02T16:37:17.566Z,100765.84
2022-08-02T16:39:45.172Z,100769.81
2022-08-02T16:42:12.754Z,100767.38
2022-08-02T16:44:53.551Z,100754.75
2022-08-02T16:47:42.855Z,100764.41
2022-08-02T16:50:11.133Z,100757.47
2022-08-02T16:52:40.419Z,100755.06
2022-08-02T16:55:11.320Z,100751.78
2022-08-02T16:57:43.509Z,100755.19
2022-08-02T17:00:15.557Z,100751.72
2022-08-02T17:02:43.792Z,100745.94
2022-08-02T17:05:14.402Z,100741.00
2022-08-02T17:08:15.681Z,100738.19
2022-08-02T17:10:33.469Z,100743.22
2022-08-02T17:13:11.094Z,100739.09
2022-08-02T17:16:17.278Z,100742.56
2022-08-02T17:18:27.868Z,100746.41
2022-08-02T17:20:56.313Z,100759.69
2022-08-02T17:24:04.124Z,100752.41
2022-08-02T17:26:13.468Z,100752.03
2022-08-02T17:28:50.829Z,100758.19
2022-08-02T17:31:29.678Z,100760.91
2022-08-02T17:33:58.354Z,100762.19
2022-08-02T17:36:26.205Z,100761.78
2022-08-02T17:38:55.213Z,100767.19
2022-08-02T17:41:37.726Z,100772.50
2022-08-02T17:44:08.652Z,100768.31
2022-08-02T17:46:37.192Z,100764.13
2022-08-02T17:49:17.369Z,100759.78
2022-08-02T17:52:15.466Z,100768.56
2022-08-02T17:54:34.815Z,100765.75
2022-08-02T17:57:02.495Z,100774.13
2022-08-02T17:59:41.513Z,100762.00
2022-08-02T18:02:11.300Z,100761.06
2022-08-02T18:04:39.508Z,100762.44
2022-08-02T18:07:09.352Z,100761.63
2022-08-02T18:09:43.341Z,100766.50
2022-08-02T18:12:14.191Z,100773.16
2022-08-02T18:14:48.812Z,100762.94
2022-08-02T18:17:16.751Z,100769.16
2022-08-02T18:19:57.269Z,100765.91
2022-08-02T18:22:31.126Z,100780.75
2022-08-02T18:25:00.593Z,100776.81
2022-08-02T18:27:39.090Z,100788.97
2022-08-02T18:30:08.831Z,100790.47
2022-08-02T18:33:55.982Z,100793.22
2022-08-02T18:35:29.414Z,100792.34
2022-08-02T18:38:03.527Z,100784.59
2022-08-02T18:40:32.849Z,100799.50
2022-08-02T18:43:03.473Z,100794.97
2022-08-02T18:45:36.874Z,100788.72
2022-08-02T18:48:22.536Z,100789.25
2022-08-02T18:50:53.560Z,100791.44
2022-08-02T18:53:28.306Z,100806.94
2022-08-02T18:56:19.616Z,100798.38
2022-08-02T18:58:59.616Z,100803.91
2022-08-02T19:01:33.518Z,100798.84
2022-08-02T19:04:03.848Z,100801.03
2022-08-02T19:06:31.672Z,100792.56
2022-08-02T19:09:05.667Z,100796.56
2022-08-02T19:11:40.766Z,100791.69
2022-08-02T19:14:09.170Z,100791.66
2022-08-02T19:16:38.153Z,100793.66
2022-08-02T19:19:06.333Z,100788.72
2022-08-02T19:22:16.781Z,100792.84
2022-08-02T19:24:22.105Z,100794.66
2022-08-02T19:26:52.482Z,100800.47
2022-08-02T19:29:25.190Z,100804.13
2022-08-02T19:32:08.648Z,100800.03
2022-08-02T19:34:58.414Z,100800.50
2022-08-02T19:37:26.106Z,100807.34
2022-08-02T19:40:05.574Z,100796.38
2022-08-02T19:44:21.533Z,100806.88
2022-08-02T19:45:49.065Z,100816.03
2022-08-02T19:48:14.429Z,100820.47
2022-08-02T19:50:44.215Z,100822.78
2022-08-02T19:53:17.960Z,100817.66
2022-08-02T19:56:01.177Z,100815.75
2022-08-02T19:58:32.513Z,100817.44
2022-08-02T20:01:00.405Z,100816.13
2022-08-02T20:03:50.999Z,100816.66
2022-08-02T20:06:17.681Z,100812.84
2022-08-02T20:08:53.066Z,100813.06
2022-08-02T20:11:24.951Z,100807.38
2022-08-02T20:13:54.032Z,100815.38
2022-08-02T20:16:28.346Z,100807.25
2022-08-02T20:19:01.001Z,100814.16
2022-08-02T20:21:35.748Z,100819.03
2022-08-02T20:24:05.982Z,100814.84
2022-08-02T20:26:35.466Z,100822.25
2022-08-02T20:29:05.147Z,100826.00
2022-08-02T20:31:33.191Z,100829.44
2022-08-02T20:34:00.832Z,100836.53
2022-08-02T20:36:28.895Z,100831.88
2022-08-02T20:38:56.580Z,100832.84
2022-08-02T20:41:37.329Z,100828.81
2022-08-02T20:44:15.405Z,100828.25
2022-08-02T20:46:44.833Z,100820.91
2022-08-02T20:49:21.552Z,100823.38
2022-08-02T20:51:50.843Z,100819.44
2022-08-02T20:54:21.357Z,100826.75
2022-08-02T20:56:50.634Z,100825.63
2022-08-02T21:02:07.856Z,100827.03
2022-08-02T21:04:41.409Z,100835.50
2022-08-02T21:07:11.485Z,100829.69
2022-08-02T21:09:53.849Z,100831.97
2022-08-02T21:12:30.108Z,100834.25
2022-08-02T21:14:59.713Z,100837.22
2022-08-02T21:17:42.566Z,100834.13
2022-08-02T21:20:16.852Z,100827.69
2022-08-02T21:22:44.774Z,100828.09
2022-08-02T21:25:15.658Z,100833.06
2022-08-02T21:27:52.792Z,100824.03
2022-08-02T21:30:24.143Z,100828.13
2022-08-02T21:32:54.800Z,100830.81
2022-08-02T21:35:25.386Z,100822.94
2022-08-02T21:37:57.999Z,100828.00
2022-08-02T21:40:26.134Z,100826.03
2022-08-02T21:42:54.786Z,100825.47
2022-08-02T21:45:24.020Z,100824.06
2022-08-02T21:47:56.131Z,100823.63
2022-08-02T21:50:23.783Z,100826.28
2022-08-02T21:52:53.315Z,100819.94
2022-08-02T21:55:23.956Z,100825.69
2022-08-02T21:58:09.000Z,100822.59
2022-08-02T22:00:37.996Z,100825.41
2022-08-02T22:03:22.977Z,100821.75
2022-08-02T22:05:50.996Z,100818.63
2022-08-02T22:08:18.624Z,100821.59
2022-08-02T22:11:04.831Z,100827.06
2022-08-02T22:13:47.627Z,100830.97
2022-08-02T22:16:18.305Z,100831.25
2022-08-02T22:18:51.280Z,100829.28
2022-08-02T22:21:20.409Z,100832.22
2022-08-02T22:23:51.357Z,100831.44
2022-08-02T22:26:19.786Z,100832.53
2022-08-02T22:28:51.090Z,100833.25
2022-08-02T22:31:40.337Z,100837.84
2022-08-02T22:34:26.624Z,100837.00
2022-08-02T22:36:56.073Z,100839.94
2022-08-02T22:39:23.710Z,100839.81
2022-08-02T22:42:06.615Z,100845.03
2022-08-02T22:44:38.975Z,100841.22
2022-08-02T22:47:14.962Z,100845.50
2022-08-02T22:49:51.924Z,100842.94
2022-08-02T22:52:22.406Z,100848.13
2022-08-02T22:54:50.853Z,100843.31
2022-08-02T22:57:30.145Z,100839.09
2022-08-02T22:58:56.733Z,100830.00
2022-08-02T22:59:59.106Z,100840.06
2022-08-02T23:02:28.311Z,100831.47
2022-08-02T23:04:57.892Z,100831.88
2022-08-02T23:07:25.507Z,100841.56
2022-08-02T23:09:53.150Z,100837.22
2022-08-02T23:12:21.119Z,100836.38
2022-08-02T23:14:50.191Z,100837.34
2022-08-02T23:17:35.579Z,100835.78
2022-08-02T23:20:06.016Z,100837.63
2022-08-02T23:22:34.295Z,100834.19
2022-08-02T23:25:02.263Z,100834.13
2022-08-02T23:27:30.068Z,100835.78
2022-08-02T23:29:57.887Z,100837.19
2022-08-02T23:32:26.096Z,100835.78
2022-08-02T23:34:53.943Z,100843.06
2022-08-02T23:37:23.524Z,100839.41
2022-08-02T23:39:51.507Z,100833.09
2022-08-02T23:42:19.438Z,100844.66
2022-08-02T23:44:47.183Z,100840.69
2022-08-02T23:47:16.749Z,100839.81
2022-08-02T23:49:44.521Z,100838.41
2022-08-02T23:52:12.544Z,100842.03
2022-08-02T23:54:41.538Z,100839.75
2022-08-02T23:57:20.319Z,100842.69
2022-08-02T23:59:49.715Z,100837.47
